Time;durP1;ratioP1;P1;durP2;ratioP2;P2;SDS_P1;SDS_P2;PMS_P1;PMS_P2;Temp;Humidity;BMP_temperature;BMP_pressure;BME280_temperature;BME280_humidity;BME280_pressure;Samples;Min_cycle;Max_cycle;Signal;HPM_P1;HPM_P2
2023/12/24 00:01:12;;;;;;;0.60;0.60;;;;;;;8.80;69.66;98351.09;5036503;28;20432;-75
2023/12/24 00:03:38;;;;;;;0.70;0.70;;;;;;;8.78;69.73;98342.16;5029854;28;20298;-75
2023/12/24 00:06:05;;;;;;;0.70;0.70;;;;;;;8.80;70.02;98344.88;5032742;28;20523;-76
2023/12/24 00:08:31;;;;;;;0.70;0.70;;;;;;;8.74;69.96;98350.91;5029492;28;20067;-75
2023/12/24 00:10:57;;;;;;;0.70;0.70;;;;;;;8.79;69.31;98338.66;5030601;28;20143;-75
2023/12/24 00:13:24;;;;;;;0.70;0.70;;;;;;;8.77;69.91;98337.72;5031395;28;20042;-75
2023/12/24 00:15:50;;;;;;;0.70;0.70;;;;;;;8.79;69.56;98345.72;5032562;28;20041;-75
2023/12/24 00:18:15;;;;;;;0.70;0.70;;;;;;;8.72;69.44;98342.00;5030742;28;20064;-75
2023/12/24 00:20:41;;;;;;;0.60;0.60;;;;;;;8.73;69.39;98339.38;5033541;28;20084;-75
2023/12/24 00:23:07;;;;;;;0.70;0.70;;;;;;;8.72;69.56;98337.56;5030431;28;20049;-75
2023/12/24 00:25:35;;;;;;;0.70;0.70;;;;;;;8.74;69.57;98334.94;5030775;28;20502;-76
2023/12/24 00:28:00;;;;;;;0.80;0.80;;;;;;;8.73;68.82;98344.69;5032366;28;20091;-75
2023/12/24 00:30:27;;;;;;;0.70;0.70;;;;;;;8.73;68.93;98346.44;5032700;28;20041;-75
2023/12/24 00:32:56;;;;;;;0.60;0.60;;;;;;;8.74;68.92;98345.59;5031621;28;20047;-76
2023/12/24 00:35:22;;;;;;;0.70;0.70;;;;;;;8.81;68.72;98336.91;5032302;28;21044;-75
2023/12/24 00:37:48;;;;;;;0.60;0.60;;;;;;;8.76;68.57;98325.25;5031471;28;20057;-75
2023/12/24 00:40:14;;;;;;;0.60;0.60;;;;;;;8.73;69.04;98325.19;5029632;28;20056;-76
2023/12/24 00:42:41;;;;;;;0.70;0.70;;;;;;;8.72;69.27;98332.25;5030325;28;20038;-75
2023/12/24 00:45:09;;;;;;;0.70;0.70;;;;;;;8.79;68.54;98333.31;5031354;28;20140;-75
2023/12/24 00:47:36;;;;;;;0.70;0.70;;;;;;;8.82;68.44;98336.09;5036497;28;20616;-75
2023/12/24 00:50:02;;;;;;;0.77;0.77;;;;;;;8.80;68.45;98337.78;5029385;28;20064;-75
2023/12/24 00:52:28;;;;;;;0.70;0.70;;;;;;;8.70;69.28;98331.28;5035165;28;20117;-75
2023/12/24 00:54:53;;;;;;;0.70;0.70;;;;;;;8.74;68.82;98329.63;5033928;28;20045;-76
2023/12/24 00:57:19;;;;;;;0.70;0.70;;;;;;;8.81;68.44;98322.72;5034040;28;20495;-75
2023/12/24 00:59:44;;;;;;;0.70;0.70;;;;;;;8.76;68.73;98332.31;5038026;28;20056;-75
2023/12/24 01:02:10;;;;;;;0.70;0.70;;;;;;;8.73;69.10;98319.84;5034096;28;20116;-75
2023/12/24 01:04:35;;;;;;;0.70;0.70;;;;;;;8.72;68.85;98332.25;5031947;28;20902;-76
2023/12/24 01:07:01;;;;;;;0.70;0.70;;;;;;;8.76;68.77;98332.31;5041076;28;20029;-75
2023/12/24 01:09:26;;;;;;;0.70;0.70;;;;;;;8.84;68.22;98325.47;5033857;28;20044;-75
2023/12/24 01:11:53;;;;;;;0.70;0.70;;;;;;;8.72;68.72;98324.28;5034676;28;20513;-75
2023/12/24 01:14:19;;;;;;;0.60;0.60;;;;;;;8.79;68.40;98330.66;5033759;28;20096;-75
2023/12/24 01:16:44;;;;;;;0.70;0.70;;;;;;;8.81;68.06;98328.94;5035341;28;20037;-75
2023/12/24 01:19:10;;;;;;;0.70;0.70;;;;;;;8.77;68.77;98332.41;5037655;28;20099;-76
2023/12/24 01:21:35;;;;;;;0.80;0.80;;;;;;;8.75;68.67;98318.13;5036062;28;20046;-75
2023/12/24 01:24:01;;;;;;;0.80;0.80;;;;;;;8.76;68.45;98324.34;5035197;28;20095;-76
2023/12/24 01:26:27;;;;;;;0.70;0.70;;;;;;;8.84;68.03;98322.81;5040734;28;20034;-75
2023/12/24 01:28:52;;;;;;;0.70;0.70;;;;;;;8.84;68.09;98326.38;5050787;28;20041;-75
2023/12/24 01:31:19;;;;;;;0.65;0.65;;;;;;;8.79;68.18;98327.09;5034458;28;20592;-75
2023/12/24 01:33:44;;;;;;;0.70;0.70;;;;;;;8.82;67.76;98319.22;5033081;28;20041;-75
2023/12/24 01:36:10;;;;;;;0.70;0.70;;;;;;;8.84;67.92;98325.47;5038765;28;20399;-75
2023/12/24 01:38:36;;;;;;;0.70;0.70;;;;;;;8.81;67.59;98320.06;5035607;28;20042;-75
2023/12/24 01:41:01;;;;;;;0.70;0.70;;;;;;;8.83;67.62;98324.59;5033596;28;20092;-75
2023/12/24 01:43:27;;;;;;;0.70;0.70;;;;;;;8.79;67.61;98327.09;5041180;28;20159;-76
2023/12/24 01:45:53;;;;;;;0.70;0.70;;;;;;;8.79;67.72;98327.09;5036742;28;20071;-75
2023/12/24 01:48:20;;;;;;;0.70;0.70;;;;;;;8.86;66.62;98326.41;5035600;28;20582;-75
2023/12/24 01:50:48;;;;;;;0.70;0.70;;;;;;;8.96;66.21;98321.44;5035509;28;20482;-75
2023/12/24 01:53:16;;;;;;;0.80;0.80;;;;;;;8.95;66.20;98314.28;5039315;28;20047;-75
2023/12/24 01:55:44;;;;;;;0.70;0.70;;;;;;;8.98;66.01;98327.69;5042862;28;20037;-75
2023/12/24 01:58:09;;;;;;;0.80;0.80;;;;;;;8.99;65.90;98326.81;5029251;28;20049;-75
2023/12/24 02:00:35;;;;;;;0.70;0.70;;;;;;;8.93;65.71;98324.00;5026063;28;20099;-75
2023/12/24 02:03:02;;;;;;;0.70;0.70;;;;;;;8.86;65.96;98319.38;5041433;28;20029;-75
2023/12/24 02:05:29;;;;;;;0.70;0.70;;;;;;;8.99;65.47;98324.16;5036555;28;20157;-76
2023/12/24 02:07:58;;;;;;;0.70;0.70;;;;;;;8.92;65.69;98323.97;5024121;28;20037;-75
2023/12/24 02:10:24;;;;;;;0.70;0.70;;;;;;;8.85;66.36;98322.84;5048953;28;20049;-76
2023/12/24 02:12:50;;;;;;;0.70;0.70;;;;;;;8.90;66.11;98330.97;5037525;28;20124;-75
2023/12/24 02:15:15;;;;;;;0.60;0.60;;;;;;;8.90;65.54;98328.31;5035803;28;20123;-75
2023/12/24 02:17:43;;;;;;;0.70;0.70;;;;;;;8.88;66.01;98330.94;5033696;28;20553;-75
2023/12/24 02:20:09;;;;;;;0.70;0.70;;;;;;;8.82;66.12;98329.88;5030370;28;20051;-75
2023/12/24 02:22:35;;;;;;;0.70;0.70;;;;;;;8.87;66.34;98326.47;5035484;28;20040;-75
2023/12/24 02:25:01;;;;;;;0.70;0.70;;;;;;;8.82;66.67;98325.44;5046051;28;20065;-75
2023/12/24 02:27:36;;;;;;;0.70;0.70;;;;;;;8.79;65.92;98327.09;5034635;28;20037;-75
2023/12/24 02:30:15;;;;;;;0.60;0.60;;;;;;;8.87;65.52;98329.16;5033144;28;20034;-75
2023/12/24 02:32:43;;;;;;;0.70;0.70;;;;;;;8.79;66.22;98332.44;5034848;28;20109;-75
2023/12/24 02:35:10;;;;;;;0.70;0.70;;;;;;;8.74;66.41;98326.97;5030174;28;20211;-75
2023/12/24 02:37:36;;;;;;;;;;;;;;;8.81;65.65;98323.63;5035770;28;20049;-75
2023/12/24 02:40:01;;;;;;;0.80;0.80;;;;;;;8.80;65.49;98347.53;5034098;28;19924;-75
2023/12/24 02:42:28;;;;;;;0.70;0.70;;;;;;;8.81;65.49;98320.06;5034092;28;20727;-75
2023/12/24 02:44:53;;;;;;;0.70;0.70;;;;;;;8.81;65.94;98334.25;5033885;28;20028;-76
2023/12/24 02:47:18;;;;;;;0.65;0.65;;;;;;;8.82;65.51;98333.44;5035907;28;20526;-75
2023/12/24 02:49:44;;;;;;;0.70;0.70;;;;;;;8.82;65.68;98333.44;5037423;28;20032;-75
2023/12/24 02:52:09;;;;;;;0.70;0.70;;;;;;;8.79;65.77;98340.41;5038484;28;20041;-75
2023/12/24 02:54:35;;;;;;;0.60;0.60;;;;;;;8.79;65.62;98345.72;5034502;28;20037;-75
2023/12/24 02:57:00;;;;;;;0.70;0.70;;;;;;;8.79;65.77;98341.31;5032037;28;20047;-75
2023/12/24 02:59:28;;;;;;;0.70;0.70;;;;;;;8.77;66.16;98337.72;5032888;28;20450;-75
2023/12/24 03:01:53;;;;;;;0.70;0.70;;;;;;;8.75;66.50;98334.09;5031903;28;20090;-75
2023/12/24 03:04:19;;;;;;;0.70;0.70;;;;;;;8.74;66.04;98311.91;5031473;28;21953;-76
2023/12/24 03:06:44;;;;;;;0.70;0.70;;;;;;;8.77;65.96;98313.78;5047830;28;20055;-76
2023/12/24 03:09:10;;;;;;;0.70;0.70;;;;;;;8.72;67.03;98316.28;5037562;28;20037;-76
2023/12/24 03:11:36;;;;;;;0.70;0.70;;;;;;;8.76;66.46;98319.03;5034510;28;20048;-75
2023/12/24 03:14:01;;;;;;;0.70;0.70;;;;;;;8.71;66.62;98313.56;5031884;28;20033;-75
2023/12/24 03:16:27;;;;;;;0.60;0.60;;;;;;;8.72;66.35;98310.97;5031021;28;20038;-75
2023/12/24 03:18:52;;;;;;;0.75;0.75;;;;;;;8.71;67.16;98321.53;5036670;28;20044;-75
2023/12/24 03:21:18;;;;;;;0.70;0.70;;;;;;;8.69;66.70;98318.84;5047061;28;20045;-75
2023/12/24 03:23:43;;;;;;;0.60;0.60;;;;;;;8.67;66.79;98314.31;5033677;28;20033;-75
2023/12/24 03:26:22;;;;;;;0.70;0.70;;;;;;;8.59;67.57;98302.59;5032889;28;20029;-76
2023/12/24 03:28:51;;;;;;;0.70;0.70;;;;;;;8.66;67.13;98309.88;5035316;28;20037;-76
2023/12/24 03:31:17;;;;;;;0.70;0.70;;;;;;;8.56;68.05;98323.75;5045788;28;20041;-76
2023/12/24 03:33:42;;;;;;;0.60;0.60;;;;;;;8.61;67.92;98323.03;5031197;28;20589;-76
2023/12/24 03:36:09;;;;;;;0.70;0.70;;;;;;;8.56;68.28;98329.06;5032739;28;20102;-76
2023/12/24 03:38:36;;;;;;;0.70;0.70;;;;;;;8.54;68.04;98325.47;5032078;28;20099;-76
2023/12/24 03:41:02;;;;;;;;;;;;;;;8.56;68.65;98326.41;5032807;28;20118;-76
2023/12/24 03:43:29;;;;;;;0.70;0.70;;;;;;;8.54;68.92;98329.03;5034116;28;19980;-76
2023/12/24 03:45:54;;;;;;;0.80;0.80;;;;;;;8.57;68.75;98330.88;5033148;28;20030;-76
2023/12/24 03:48:20;;;;;;;0.70;0.70;;;;;;;8.61;68.35;98319.47;5030537;28;20442;-76
2023/12/24 03:50:45;;;;;;;0.70;0.70;;;;;;;8.59;68.97;98313.22;5031283;28;20036;-76
2023/12/24 03:53:11;;;;;;;0.70;0.70;;;;;;;8.58;68.99;98314.09;5029634;28;20061;-76
2023/12/24 03:55:36;;;;;;;0.73;0.73;;;;;;;8.50;69.50;98313.84;5031259;28;20867;-76
2023/12/24 03:58:01;;;;;;;0.70;0.70;;;;;;;8.52;69.15;98319.19;5029909;28;20048;-76
2023/12/24 04:00:27;;;;;;;0.70;0.70;;;;;;;8.52;69.10;98312.13;5032720;28;20033;-76
2023/12/24 04:02:55;;;;;;;0.68;0.68;;;;;;;8.53;69.51;98299.72;5031358;28;20513;-75
2023/12/24 04:05:20;;;;;;;0.63;0.63;;;;;;;8.54;69.13;98298.88;5031459;28;20041;-76
2023/12/24 04:07:46;;;;;;;0.60;0.60;;;;;;;8.48;69.52;98296.97;5033111;28;20048;-76
2023/12/24 04:10:11;;;;;;;0.70;0.70;;;;;;;8.43;70.13;98298.53;5031020;28;20037;-76
2023/12/24 04:12:37;;;;;;;0.70;0.70;;;;;;;8.40;70.23;98293.16;5030571;28;20479;-76
2023/12/24 04:15:04;;;;;;;0.70;0.70;;;;;;;8.37;70.18;98306.34;5032183;28;20033;-76
2023/12/24 04:17:30;;;;;;;0.68;0.68;;;;;;;8.41;70.04;98301.16;5031420;28;20037;-76
2023/12/24 04:19:56;;;;;;;0.70;0.70;;;;;;;8.37;70.21;98287.72;5038344;28;20034;-76
2023/12/24 04:22:21;;;;;;;0.70;0.70;;;;;;;8.41;70.30;98301.16;5031084;28;20094;-76
2023/12/24 04:24:47;;;;;;;0.68;0.68;;;;;;;8.42;70.38;98302.97;5032017;28;20483;-76
2023/12/24 04:27:12;;;;;;;0.70;0.70;;;;;;;8.38;70.61;98298.41;5032729;28;20335;-76
2023/12/24 04:29:37;;;;;;;0.70;0.70;;;;;;;8.33;70.97;98305.28;5037932;28;20037;-76
2023/12/24 04:32:03;;;;;;;0.70;0.70;;;;;;;8.35;70.30;98300.06;5046730;28;20175;-76
2023/12/24 04:34:31;;;;;;;0.70;0.70;;;;;;;8.43;69.46;98291.50;5036529;28;20037;-76
2023/12/24 04:36:56;;;;;;;;;;;;;;;8.44;69.30;98289.72;5038195;28;20399;-76
2023/12/24 04:39:21;;;;;;;0.77;0.77;;;;;;;8.42;69.47;98287.00;5038148;28;20362;-76
2023/12/24 04:41:47;;;;;;;0.70;0.70;;;;;;;8.40;69.73;98275.44;5036060;28;20523;-76
2023/12/24 04:44:12;;;;;;;0.70;0.70;;;;;;;8.43;69.89;98272.88;5034625;28;20037;-75
2023/12/24 04:46:42;;;;;;;0.60;0.60;;;;;;;8.42;69.54;98257.78;5035980;28;20859;-76
2023/12/24 04:49:08;;;;;;;0.70;0.70;;;;;;;8.48;69.18;98247.34;5034810;28;20040;-75
2023/12/24 04:51:34;;;;;;;0.68;0.68;;;;;;;8.41;69.18;98237.38;5040907;28;20122;-76
2023/12/24 04:54:00;;;;;;;0.70;0.70;;;;;;;8.43;69.48;98242.72;5033261;28;20608;-76
2023/12/24 04:56:26;;;;;;;0.70;0.70;;;;;;;8.34;69.42;98231.81;5049621;28;20603;-76
2023/12/24 04:58:53;;;;;;;0.70;0.70;;;;;;;8.46;69.32;98227.75;5036112;28;20078;-76
2023/12/24 05:01:22;;;;;;;0.70;0.70;;;;;;;8.39;69.28;98225.78;5020095;28;20072;-75
2023/12/24 05:03:48;;;;;;;0.70;0.70;;;;;;;8.39;69.07;98215.16;5032991;28;20155;-76
2023/12/24 05:06:14;;;;;;;0.70;0.70;;;;;;;8.44;69.17;98221.50;5033133;28;20120;-76
2023/12/24 05:08:40;;;;;;;0.70;0.70;;;;;;;8.45;68.99;98212.69;5034346;28;20124;-75
2023/12/24 05:11:07;;;;;;;0.80;0.80;;;;;;;8.41;69.39;98231.16;5033922;28;20041;-76
2023/12/24 05:13:33;;;;;;;0.80;0.80;;;;;;;8.42;69.28;98228.53;5035605;28;20041;-76
2023/12/24 05:15:59;;;;;;;0.70;0.70;;;;;;;8.45;68.97;98227.72;5037149;28;20037;-76
2023/12/24 05:18:24;;;;;;;0.70;0.70;;;;;;;8.46;69.01;98234.84;5038290;28;20403;-76
2023/12/24 05:20:50;;;;;;;0.70;0.70;;;;;;;8.45;68.80;98228.63;5042304;28;20037;-76
2023/12/24 05:23:17;;;;;;;0.70;0.70;;;;;;;8.47;68.75;98229.56;5035183;28;20560;-77
2023/12/24 05:25:42;;;;;;;0.80;0.80;;;;;;;8.47;68.93;98241.94;5033140;28;20120;-77
2023/12/24 05:28:11;;;;;;;0.70;0.70;;;;;;;8.38;69.44;98242.56;5033811;28;20625;-76
2023/12/24 05:30:36;;;;;;;0.70;0.70;;;;;;;8.32;70.00;98239.72;5033659;28;20052;-75
2023/12/24 05:33:01;;;;;;;0.70;0.70;;;;;;;8.39;69.89;98241.75;5031982;28;20046;-77
2023/12/24 05:35:27;;;;;;;0.70;0.70;;;;;;;8.41;69.56;98226.72;5035164;28;20033;-76
2023/12/24 05:37:52;;;;;;;0.70;0.70;;;;;;;8.39;69.61;98232.88;5033620;28;20037;-77
2023/12/24 05:40:18;;;;;;;0.60;0.60;;;;;;;8.46;69.12;98225.09;5034068;28;20040;-74
2023/12/24 05:42:43;;;;;;;0.70;0.70;;;;;;;8.33;69.72;98230.88;5036532;28;20034;-76
2023/12/24 05:45:10;;;;;;;0.70;0.70;;;;;;;8.40;69.71;98230.25;5034411;28;20049;-76
2023/12/24 05:47:36;;;;;;;0.70;0.70;;;;;;;8.36;70.18;98219.44;5031735;28;20052;-76
2023/12/24 05:50:07;;;;;;;0.70;0.70;;;;;;;8.33;70.29;98211.38;5035593;28;20403;-76
2023/12/24 05:52:33;;;;;;;0.70;0.70;;;;;;;8.38;70.05;98213.34;5037619;28;20037;-76
2023/12/24 05:54:58;;;;;;;0.70;0.70;;;;;;;8.34;70.09;98205.22;5033432;28;20040;-74
2023/12/24 05:57:24;;;;;;;0.60;0.60;;;;;;;8.37;70.36;98216.84;5033610;28;20034;-76
2023/12/24 05:59:49;;;;;;;0.68;0.68;;;;;;;8.33;70.42;98206.94;5032675;28;20804;-76
2023/12/24 06:02:14;;;;;;;0.65;0.65;;;;;;;8.32;70.00;98202.50;5033507;28;20041;-76
2023/12/24 06:04:40;;;;;;;0.70;0.70;;;;;;;8.36;69.50;98200.84;5034493;28;20553;-76
2023/12/24 06:07:05;;;;;;;0.80;0.80;;;;;;;8.31;70.06;98199.81;5032076;28;20033;-76
2023/12/24 06:09:31;;;;;;;0.70;0.70;;;;;;;8.42;69.45;98203.69;5039308;28;20043;-76
2023/12/24 06:11:57;;;;;;;0.70;0.70;;;;;;;8.42;70.04;98201.94;5032162;28;20037;-77
2023/12/24 06:14:22;;;;;;;0.70;0.70;;;;;;;8.29;70.05;98202.44;5040331;28;20715;-76
2023/12/24 06:16:48;;;;;;;0.80;0.80;;;;;;;8.36;70.12;98208.81;5035702;28;20037;-77
2023/12/24 06:19:13;;;;;;;0.75;0.75;;;;;;;8.34;69.92;98218.50;5033515;28;20116;-75
2023/12/24 06:21:39;;;;;;;0.80;0.80;;;;;;;8.39;70.23;98209.84;5034976;28;20033;-77
2023/12/24 06:24:05;;;;;;;0.70;0.70;;;;;;;8.35;69.84;98218.56;5033484;28;20048;-75
2023/12/24 06:26:33;;;;;;;0.70;0.70;;;;;;;8.34;69.96;98214.09;5032722;28;20052;-75
2023/12/24 06:28:58;;;;;;;0.70;0.70;;;;;;;8.27;70.22;98208.53;5031984;28;20038;-74
2023/12/24 06:31:24;;;;;;;0.73;0.73;;;;;;;8.35;69.87;98213.22;5034726;28;20601;-75
2023/12/24 06:33:49;;;;;;;0.70;0.70;;;;;;;8.31;70.48;98214.00;5032409;28;20747;-75
2023/12/24 06:36:15;;;;;;;0.70;0.70;;;;;;;8.28;70.26;98210.34;5031146;28;20422;-75
2023/12/24 06:38:40;;;;;;;0.70;0.70;;;;;;;8.44;69.62;98210.88;5032489;28;20041;-75
2023/12/24 06:41:06;;;;;;;0.70;0.70;;;;;;;8.37;70.22;98192.03;5033875;28;20067;-75
2023/12/24 06:43:32;;;;;;;0.70;0.70;;;;;;;8.29;70.80;98191.81;5032920;28;20104;-75
2023/12/24 06:45:57;;;;;;;0.80;0.80;;;;;;;8.15;71.72;98190.50;5034736;28;20048;-75
2023/12/24 06:48:23;;;;;;;0.70;0.70;;;;;;;8.09;71.97;98184.97;5030862;28;20048;-77
2023/12/24 06:50:48;;;;;;;0.70;0.70;;;;;;;8.05;72.62;98183.06;5032439;28;20046;-74
2023/12/24 06:53:14;;;;;;;0.70;0.70;;;;;;;8.02;73.14;98183.00;5029741;28;20025;-77
2023/12/24 06:55:39;;;;;;;0.70;0.70;;;;;;;8.11;72.13;98189.50;5029664;28;20052;-74
2023/12/24 06:58:06;;;;;;;0.70;0.70;;;;;;;8.03;72.90;98192.75;5031062;28;20112;-75
2023/12/24 07:00:32;;;;;;;0.80;0.80;;;;;;;8.03;72.98;98192.75;5032826;28;20041;-75
2023/12/24 07:02:58;;;;;;;0.80;0.80;;;;;;;8.06;72.94;98196.41;5029895;28;20048;-75
2023/12/24 07:05:23;;;;;;;0.70;0.70;;;;;;;7.94;74.31;98191.63;5018456;28;20037;-75
2023/12/24 07:07:49;;;;;;;0.70;0.70;;;;;;;8.06;73.11;98199.06;5038493;28;20032;-75
2023/12/24 07:10:14;;;;;;;0.80;0.80;;;;;;;8.00;74.18;98188.28;5029666;28;21725;-75
2023/12/24 07:12:40;;;;;;;0.70;0.70;;;;;;;7.74;74.96;98207.81;5033153;28;20060;-75
2023/12/24 07:15:06;;;;;;;0.70;0.70;;;;;;;7.54;76.55;98185.94;5030426;28;20028;-75
2023/12/24 07:17:32;;;;;;;0.70;0.70;;;;;;;7.41;77.56;98192.59;5034979;28;20065;-75
2023/12/24 07:19:57;;;;;;;0.80;0.80;;;;;;;7.41;77.58;98196.13;5032327;28;20117;-75
2023/12/24 07:22:23;;;;;;;0.70;0.70;;;;;;;7.42;78.10;98186.41;5034224;28;20071;-74
2023/12/24 07:24:48;;;;;;;0.70;0.70;;;;;;;7.33;79.32;98197.66;5032005;28;20067;-75
2023/12/24 07:27:14;;;;;;;0.70;0.70;;;;;;;7.11;81.71;98190.72;5038320;28;20380;-75
2023/12/24 07:29:42;;;;;;;0.70;0.70;;;;;;;7.22;80.22;98185.75;5034924;28;20116;-76
2023/12/24 07:32:08;;;;;;;0.90;0.90;;;;;;;7.16;80.50;98174.97;5031191;28;20040;-76
2023/12/24 07:34:34;;;;;;;0.70;0.70;;;;;;;7.11;81.94;98168.59;5036718;28;20037;-76
2023/12/24 07:37:00;;;;;;;0.80;0.80;;;;;;;7.10;81.12;98165.06;5033072;28;20037;-76
2023/12/24 07:39:25;;;;;;;0.80;0.80;;;;;;;7.13;81.26;98169.53;5035247;28;20439;-76
2023/12/24 07:41:51;;;;;;;0.80;0.80;;;;;;;7.12;82.49;98152.72;5032290;28;20036;-76
2023/12/24 07:44:17;;;;;;;0.70;0.70;;;;;;;7.20;82.11;98151.22;5030503;28;21035;-76
2023/12/24 07:46:43;;;;;;;0.80;0.80;;;;;;;7.08;82.63;98147.25;5030548;28;20060;-76
2023/12/24 07:49:09;;;;;;;0.80;0.80;;;;;;;7.05;82.72;98144.53;5028808;28;20063;-76
2023/12/24 07:51:35;;;;;;;0.82;0.82;;;;;;;7.07;82.95;98153.44;5030884;28;20672;-76
2023/12/24 07:54:03;;;;;;;0.80;0.80;;;;;;;6.98;83.11;98158.41;5039488;28;20049;-76
2023/12/24 07:56:29;;;;;;;0.80;0.80;;;;;;;7.08;83.30;98161.44;5030406;28;20043;-77
2023/12/24 07:58:55;;;;;;;0.80;0.80;;;;;;;7.06;83.41;98162.25;5030576;28;20407;-77
2023/12/24 08:01:20;;;;;;;0.88;0.88;;;;;;;7.02;83.37;98170.94;5044895;28;20041;-76
2023/12/24 08:03:46;;;;;;;0.80;0.80;;;;;;;7.05;84.08;98181.66;5031166;28;20041;-77
2023/12/24 08:06:11;;;;;;;0.80;0.80;;;;;;;7.05;83.89;98177.25;5030449;28;20147;-77
2023/12/24 08:08:37;;;;;;;0.80;0.80;;;;;;;7.11;83.37;98179.22;5030830;28;20068;-76
2023/12/24 08:11:02;;;;;;;0.80;0.80;;;;;;;7.15;82.74;98167.84;5030311;28;20075;-76
2023/12/24 08:13:28;;;;;;;0.80;0.80;;;;;;;7.18;83.11;98170.59;5031555;28;20492;-76
2023/12/24 08:15:53;;;;;;;0.80;0.80;;;;;;;7.16;83.18;98164.34;5033364;28;20033;-76
2023/12/24 08:18:18;;;;;;;0.80;0.80;;;;;;;7.08;84.51;98166.72;5031924;28;20186;-76
2023/12/24 08:20:44;;;;;;;0.80;0.80;;;;;;;7.19;83.49;98175.97;5030570;28;20079;-77
2023/12/24 08:23:10;;;;;;;0.77;0.77;;;;;;;7.12;83.93;98167.75;5029088;28;20041;-75
2023/12/24 08:25:36;;;;;;;0.80;0.80;;;;;;;7.30;83.18;98165.69;5033507;28;20095;-75
2023/12/24 08:28:03;;;;;;;0.80;0.80;;;;;;;7.27;82.99;98170.91;5032072;28;20716;-75
2023/12/24 08:30:29;;;;;;;0.80;0.80;;;;;;;7.33;82.59;98167.53;5030778;28;20525;-75
2023/12/24 08:32:54;;;;;;;0.80;0.80;;;;;;;7.40;82.05;98161.59;5030456;28;20680;-75
2023/12/24 08:35:20;;;;;;;0.80;0.80;;;;;;;7.52;80.78;98151.38;5032656;28;20941;-75
2023/12/24 08:37:45;;;;;;;0.73;0.73;;;;;;;7.47;81.41;98142.34;5038706;28;20037;-75
2023/12/24 08:40:11;;;;;;;0.73;0.73;;;;;;;7.65;80.71;98144.69;5032065;28;20045;-75
2023/12/24 08:42:37;;;;;;;0.70;0.70;;;;;;;7.58;81.24;98137.41;5033397;28;20047;-76
2023/12/24 08:45:02;;;;;;;0.70;0.70;;;;;;;7.77;80.09;98129.16;5033557;28;20064;-76
2023/12/24 08:47:28;;;;;;;0.70;0.70;;;;;;;7.67;80.44;98119.09;5031867;28;20112;-75
2023/12/24 08:49:53;;;;;;;0.80;0.80;;;;;;;7.64;80.15;98129.63;5031829;28;20033;-75
2023/12/24 08:52:20;;;;;;;0.80;0.80;;;;;;;7.72;80.21;98134.31;5032239;28;20047;-75
2023/12/24 08:54:46;;;;;;;0.80;0.80;;;;;;;7.89;78.93;98123.28;5031562;28;20103;-75
2023/12/24 08:57:11;;;;;;;0.70;0.70;;;;;;;7.96;78.47;98127.94;5031280;28;20041;-75
2023/12/24 08:59:37;;;;;;;0.80;0.80;;;;;;;8.01;78.60;98134.28;5037735;28;20061;-75
2023/12/24 09:02:02;;;;;;;0.70;0.70;;;;;;;8.02;78.83;98140.50;5032491;28;20134;-75
2023/12/24 09:04:27;;;;;;;0.73;0.73;;;;;;;8.03;79.63;98148.50;5030246;28;20071;-76
2023/12/24 09:06:54;;;;;;;0.80;0.80;;;;;;;8.03;79.86;98152.91;5031021;28;20183;-75
2023/12/24 09:09:19;;;;;;;0.77;0.77;;;;;;;8.10;79.83;98144.28;5028852;28;20049;-75
2023/12/24 09:11:45;;;;;;;0.70;0.70;;;;;;;8.08;79.97;98160.16;5031822;28;20029;-75
2023/12/24 09:14:10;;;;;;;0.80;0.80;;;;;;;7.88;80.90;98158.69;5030353;28;20041;-76
2023/12/24 09:16:36;;;;;;;0.70;0.70;;;;;;;7.89;81.09;98156.06;5032521;28;20052;-75
2023/12/24 09:19:01;;;;;;;0.70;0.70;;;;;;;7.95;81.28;98155.34;5035052;28;20395;-75
2023/12/24 09:21:27;;;;;;;0.70;0.70;;;;;;;8.02;80.85;98161.75;5036421;28;20049;-75
2023/12/24 09:23:54;;;;;;;0.70;0.70;;;;;;;7.92;82.10;98160.56;5041880;28;20086;-77
2023/12/24 09:26:20;;;;;;;0.70;0.70;;;;;;;7.95;82.22;98158.91;5035313;28;20056;-77
2023/12/24 09:28:45;;;;;;;0.80;0.80;;;;;;;7.91;82.25;98159.69;5034737;28;20029;-76
2023/12/24 09:31:11;;;;;;;0.70;0.70;;;;;;;7.92;83.08;98155.25;5033386;28;20047;-77
2023/12/24 09:33:36;;;;;;;0.70;0.70;;;;;;;7.97;82.22;98153.63;5033438;28;20041;-77
2023/12/24 09:36:07;;;;;;;0.73;0.73;;;;;;;7.86;84.19;98158.63;5033905;28;20037;-77
2023/12/24 09:38:33;;;;;;;0.70;0.70;;;;;;;7.86;84.26;98155.97;5040275;28;20363;-77
2023/12/24 09:40:58;;;;;;;0.60;0.60;;;;;;;7.85;84.59;98151.50;5035162;28;20474;-77
2023/12/24 09:43:24;;;;;;;0.70;0.70;;;;;;;7.80;85.39;98153.13;5033406;28;20036;-75
2023/12/24 09:45:50;;;;;;;0.70;0.70;;;;;;;7.83;84.49;98139.94;5051707;28;20037;-76
2023/12/24 09:48:15;;;;;;;0.70;0.70;;;;;;;7.88;84.86;98143.63;5035084;28;20041;-77
2023/12/24 09:50:41;;;;;;;0.70;0.70;;;;;;;7.88;84.58;98140.97;5040509;28;20042;-76
2023/12/24 09:53:06;;;;;;;0.75;0.75;;;;;;;7.89;84.64;98157.81;5032871;28;20072;-77
2023/12/24 09:55:32;;;;;;;0.70;0.70;;;;;;;7.79;85.74;98153.97;5032663;28;20633;-78
2023/12/24 09:57:57;;;;;;;0.70;0.70;;;;;;;7.92;85.51;98153.50;5033873;28;20116;-77
2023/12/24 10:00:23;;;;;;;0.70;0.70;;;;;;;8.07;84.64;98158.38;5033810;28;20045;-77
2023/12/24 10:02:48;;;;;;;0.70;0.70;;;;;;;8.17;83.77;98157.78;5031895;28;20047;-75
2023/12/24 10:05:14;;;;;;;0.70;0.70;;;;;;;8.16;84.72;98157.75;5034493;28;20044;-77
2023/12/24 10:07:40;;;;;;;0.70;0.70;;;;;;;8.11;84.50;98167.34;5032540;28;20035;-76
2023/12/24 10:10:11;;;;;;;0.80;0.80;;;;;;;8.11;85.27;98162.91;5042072;28;20205;-76
2023/12/24 10:12:36;;;;;;;0.70;0.70;;;;;;;8.02;85.79;98164.41;5032815;28;20078;-77
2023/12/24 10:15:02;;;;;;;0.70;0.70;;;;;;;8.03;86.58;98172.41;5034599;28;20041;-77
2023/12/24 10:17:32;;;;;;;0.63;0.63;;;;;;;8.00;87.32;98168.75;5032595;28;20056;-76
2023/12/24 10:19:58;;;;;;;0.70;0.70;;;;;;;8.05;87.15;98170.72;5033841;28;20206;-75
2023/12/24 10:22:25;;;;;;;0.70;0.70;;;;;;;8.03;87.49;98160.88;5033779;28;20032;-77
2023/12/24 10:25:07;;;;;;;0.70;0.70;;;;;;;8.03;87.32;98152.91;5033550;28;20034;-77
2023/12/24 10:27:33;;;;;;;0.77;0.77;;;;;;;8.00;87.40;98159.06;5037177;28;20029;-78
2023/12/24 10:30:18;;;;;;;0.80;0.80;;;;;;;7.97;88.19;98153.63;5022605;28;20029;-76
2023/12/24 10:32:44;;;;;;;0.70;0.70;;;;;;;8.00;88.12;98156.41;5039795;28;20056;-76
2023/12/24 10:35:09;;;;;;;0.80;0.80;;;;;;;7.95;88.08;98148.28;5031967;28;20045;-76
2023/12/24 10:37:35;;;;;;;0.70;0.70;;;;;;;8.07;87.36;98144.19;5037362;28;20052;-76
2023/12/24 10:40:08;;;;;;;0.70;0.70;;;;;;;8.12;87.30;98150.53;5031727;28;20060;-76
2023/12/24 10:42:36;;;;;;;0.70;0.70;;;;;;;8.18;86.93;98148.94;5034432;28;20558;-76
2023/12/24 10:45:03;;;;;;;0.70;0.70;;;;;;;8.20;86.73;98152.56;5032112;28;20039;-76
2023/12/24 10:47:28;;;;;;;0.80;0.80;;;;;;;8.25;86.72;98157.13;5031455;28;20116;-76
2023/12/24 10:49:54;;;;;;;0.70;0.70;;;;;;;8.35;87.01;98152.09;5038395;28;20139;-75
2023/12/24 10:52:19;;;;;;;0.70;0.70;;;;;;;8.36;86.75;98151.28;5032496;28;20076;-76
2023/12/24 10:54:46;;;;;;;0.60;0.60;;;;;;;8.34;87.52;98149.41;5035059;28;20156;-76
2023/12/24 10:57:12;;;;;;;0.70;0.70;;;;;;;8.34;87.73;98145.00;5034576;28;20103;-76
2023/12/24 10:59:56;;;;;;;0.70;0.70;;;;;;;8.34;87.82;98147.66;5043934;28;20043;-76
2023/12/24 11:02:22;;;;;;;0.70;0.70;;;;;;;8.37;87.67;98130.91;5031689;28;20044;-76
2023/12/24 11:04:49;;;;;;;0.80;0.80;;;;;;;8.28;88.09;98134.16;5030473;28;20043;-76
2023/12/24 11:07:50;;;;;;;0.70;0.70;;;;;;;8.27;87.44;98127.06;5035727;28;20059;-76
2023/12/24 11:10:43;;;;;;;0.70;0.70;;;;;;;8.22;88.15;98120.72;4958915;28;20499;-76
2023/12/24 11:13:32;;;;;;;0.70;0.70;;;;;;;8.24;88.14;98116.34;5014718;28;20064;-75
2023/12/24 11:15:58;;;;;;;0.70;0.70;;;;;;;8.28;87.75;98136.81;5020587;28;20052;-75
2023/12/24 11:18:42;;;;;;;0.70;0.70;;;;;;;8.24;87.65;98124.34;5024845;28;20391;-76
2023/12/24 11:21:09;;;;;;;0.70;0.70;;;;;;;8.10;88.44;98129.25;5029710;28;20049;-76
2023/12/24 11:23:34;;;;;;;0.70;0.70;;;;;;;8.06;88.54;98123.78;5031426;28;20149;-77
2023/12/24 11:25:59;;;;;;;0.70;0.70;;;;;;;8.09;87.83;98121.22;5029704;28;20764;-76
2023/12/24 11:28:25;;;;;;;0.70;0.70;;;;;;;8.05;88.07;98111.34;5030297;28;20120;-76
2023/12/24 11:30:50;;;;;;;0.70;0.70;;;;;;;8.05;88.08;98119.31;5025722;28;20046;-75
2023/12/24 11:33:28;;;;;;;0.70;0.70;;;;;;;8.04;87.99;98118.41;5030579;28;20034;-76
2023/12/24 11:36:01;;;;;;;0.70;0.70;;;;;;;8.08;87.84;98122.97;5031921;28;20593;-76
2023/12/24 11:38:33;;;;;;;0.70;0.70;;;;;;;8.01;88.33;98122.75;5028499;28;20152;-76